Time;durP1;ratioP1;P1;durP2;ratioP2;P2;SDS_P1;SDS_P2;PMS_P1;PMS_P2;Temp;Humidity;BMP_temperature;BMP_pressure;BME280_temperature;BME280_humidity;BME280_pressure;Samples;Min_cycle;Max_cycle;Signal;HPM_P1;HPM_P2
2022/03/20 00:01:17;;;;;;;;;;;;;;;;;;2207337;59;1562;-71
2022/03/20 00:03:50;;;;;;;;;;;;;;;;;;2209349;67;1279;-71
2022/03/20 00:06:23;;;;;;;;;;;;;;;;;;2210304;67;1145;-71
2022/03/20 00:08:57;;;;;;;;;;;;;;;;;;2209588;67;1924;-71
2022/03/20 00:11:30;;;;;;;;;;;;;;;;;;2210113;59;1198;-71
2022/03/20 00:14:06;;;;;;;;;;;;;;;;;;2210414;67;1085;-71
2022/03/20 00:16:39;;;;;;;;;;;;;;;;;;2209350;59;1236;-71
2022/03/20 00:19:12;;;;;;;;;;;;;;;;;;2210667;59;1246;-71
2022/03/20 00:21:45;;;;;;;;;;;;;;;;;;2208368;59;1774;-71
2022/03/20 00:24:20;;;;;;;;;;;;;;;;;;2207853;67;1236;-71
2022/03/20 00:26:56;;;;;;;;;;;;;;;;;;2210791;67;1181;-71
2022/03/20 00:29:32;;;;;;;;;;;;;;;;;;2209967;67;1980;-71
2022/03/20 00:32:06;;;;;;;;;;;;;;;;;;2208660;67;1190;-71
2022/03/20 00:34:39;;;;;;;;;;;;;;;;;;2209797;67;1322;-71
2022/03/20 00:37:12;;;;;;;;;;;;;;;;;;2208797;67;1173;-71
2022/03/20 00:39:45;;;;;;;;;;;;;;;;;;2209032;59;1616;-71
2022/03/20 00:42:18;;;;;;;;;;;;;;;;;;2208420;67;1123;-71
2022/03/20 00:44:54;;;;;;;;;;;;;;;;;;2208778;67;1280;-71
2022/03/20 00:47:27;;;;;;;;;;;;;;;;;;2209289;59;1978;-71
2022/03/20 00:50:00;;;;;;;;;;;;;;;;;;2209195;59;2028;-71
2022/03/20 00:52:34;;;;;;;;;;;;;;;;;;2208960;67;1201;-71
2022/03/20 00:55:07;;;;;;;;;;;;;;;;;;2208463;67;1155;-71
2022/03/20 00:57:40;;;;;;;;;;;;;;;;;;2208479;59;1655;-72
2022/03/20 01:00:17;;;;;;;;;;;;;;;;;;2208357;59;1606;-71
2022/03/20 01:02:51;;;;;;;;;;;;;;;;;;2208867;67;1275;-71
2022/03/20 01:05:24;;;;;;;;;;;;;;;;;;2209380;67;1188;-71
2022/03/20 01:07:57;;;;;;;;;;;;;;;;;;2207944;59;2394;-71
2022/03/20 01:10:31;;;;;;;;;;;;;;;;;;2206868;67;1239;-71
2022/03/20 01:13:04;;;;;;;;;;;;;;;;;;2208597;67;1150;-71
2022/03/20 01:15:40;;;;;;;;;;;;;;;;;;2209862;67;1214;-72
2022/03/20 01:18:13;;;;;;;;;;;;;;;;;;2209030;67;1382;-71
2022/03/20 01:20:46;;;;;;;;;;;;;;;;;;2208229;59;1593;-71
2022/03/20 01:23:20;;;;;;;;;;;;;;;;;;2208951;59;1056;-71
2022/03/20 01:25:54;;;;;;;;;;;;;;;;;;2209238;67;1233;-71
2022/03/20 01:28:27;;;;;;;;;;;;;;;;;;2209443;67;1978;-71
2022/03/20 01:31:03;;;;;;;;;;;;;;;;;;2209780;59;1288;-71
2022/03/20 01:33:36;;;;;;;;;;;;;;;;;;2209241;67;1266;-72
2022/03/20 01:36:09;;;;;;;;;;;;;;;;;;2209938;67;1129;-71
2022/03/20 01:38:43;;;;;;;;;;;;;;;;;;2209033;67;1303;-71
2022/03/20 01:41:16;;;;;;;;;;;;;;;;;;2208231;59;1666;-71
2022/03/20 01:43:52;;;;;;;;;;;;;;;;;;2206302;67;1256;-71
2022/03/20 01:46:29;;;;;;;;;;;;;;;;;;2208224;67;1057;-71
2022/03/20 01:49:02;;;;;;;;;;;;;;;;;;2210064;59;2218;-71
2022/03/20 01:54:25;;;;;;;;;;;;;;;;;;2209658;67;1117;-71
2022/03/20 01:56:58;;;;;;;;;;;;;;;;;;2210287;67;1179;-71
2022/03/20 01:59:31;;;;;;;;;;;;;;;;;;2208845;59;1162;-71
2022/03/20 02:02:07;;;;;;;;;;;;;;;;;;2208788;59;1970;-71
2022/03/20 02:04:41;;;;;;;;;;;;;;;;;;2209605;59;1230;-71
2022/03/20 02:07:16;;;;;;;;;;;;;;;;;;2210330;59;1243;-72
2022/03/20 02:09:49;;;;;;;;;;;;;;;;;;2210479;67;1933;-71
2022/03/20 02:12:22;;;;;;;;;;;;;;;;;;2209842;59;1090;-71
2022/03/20 02:14:56;;;;;;;;;;;;;;;;;;2209955;59;1292;-71
2022/03/20 02:17:32;;;;;;;;;;;;;;;;;;2209930;67;1063;-72
2022/03/20 02:20:08;;;;;;;;;;;;;;;;;;2208683;59;1610;-71
2022/03/20 02:22:44;;;;;;;;;;;;;;;;;;2209137;67;1315;-71
2022/03/20 02:25:19;;;;;;;;;;;;;;;;;;2209562;59;1039;-71
2022/03/20 02:27:53;;;;;;;;;;;;;;;;;;2210445;67;1239;-70
2022/03/20 02:30:30;;;;;;;;;;;;;;;;;;2209313;67;1991;-71
2022/03/20 02:33:03;;;;;;;;;;;;;;;;;;2210464;67;1086;-71
2022/03/20 02:35:37;;;;;;;;;;;;;;;;;;2207385;67;1307;-71
2022/03/20 02:38:13;;;;;;;;;;;;;;;;;;2210014;59;1135;-71
2022/03/20 02:40:47;;;;;;;;;;;;;;;;;;2209229;59;1780;-71
2022/03/20 02:43:20;;;;;;;;;;;;;;;;;;2210317;59;1081;-71
2022/03/20 02:45:53;;;;;;;;;;;;;;;;;;2209976;67;1209;-71
2022/03/20 02:48:26;;;;;;;;;;;;;;;;;;2209787;59;1964;-71
2022/03/20 02:50:59;;;;;;;;;;;;;;;;;;2209729;67;1282;-71
2022/03/20 02:53:36;;;;;;;;;;;;;;;;;;2209388;59;1113;-71
2022/03/20 02:56:10;;;;;;;;;;;;;;;;;;2207531;59;1702;-71
2022/03/20 02:58:44;;;;;;;;;;;;;;;;;;2207752;67;1237;-71
2022/03/20 03:01:17;;;;;;;;;;;;;;;;;;2208369;59;1567;-71
2022/03/20 03:03:53;;;;;;;;;;;;;;;;;;2209039;59;1217;-71
2022/03/20 03:06:27;;;;;;;;;;;;;;;;;;2209180;67;1222;-71
2022/03/20 03:11:52;;;;;;;;;;;;;;;;;;2209782;67;1218;-71
2022/03/20 03:17:14;;;;;;;;;;;;;;;;;;2209048;67;1021;-71
2022/03/20 03:20:00;;;;;;;;;;;;;;;;;;2209744;59;1574;-71
2022/03/20 03:22:33;;;;;;;;;;;;;;;;;;2209656;67;1208;-71
2022/03/20 03:25:10;;;;;;;;;;;;;;;;;;2209381;67;1123;-71
2022/03/20 03:27:43;;;;;;;;;;;;;;;;;;2210311;67;1216;-71
2022/03/20 03:30:16;;;;;;;;;;;;;;;;;;2208873;67;2002;-71
2022/03/20 03:32:49;;;;;;;;;;;;;;;;;;2209491;67;1252;-71
2022/03/20 03:38:13;;;;;;;;;;;;;;;;;;2209797;67;1132;-71
2022/03/20 03:40:49;;;;;;;;;;;;;;;;;;2208530;59;1943;-71
2022/03/20 03:43:23;;;;;;;;;;;;;;;;;;2210002;67;1174;-71
2022/03/20 03:45:56;;;;;;;;;;;;;;;;;;2210118;67;1144;-71
2022/03/20 03:48:29;;;;;;;;;;;;;;;;;;2209489;59;1875;-71
2022/03/20 03:51:03;;;;;;;;;;;;;;;;;;2208784;67;2006;-71
2022/03/20 03:53:36;;;;;;;;;;;;;;;;;;2208887;67;1248;-71
2022/03/20 03:56:12;;;;;;;;;;;;;;;;;;2208817;67;1034;-71
2022/03/20 03:58:45;;;;;;;;;;;;;;;;;;2208925;67;1157;-71
2022/03/20 04:01:18;;;;;;;;;;;;;;;;;;2208164;59;1658;-71
2022/03/20 04:03:51;;;;;;;;;;;;;;;;;;2209086;59;1154;-71
2022/03/20 04:06:24;;;;;;;;;;;;;;;;;;2209205;59;1060;-71
2022/03/20 04:08:57;;;;;;;;;;;;;;;;;;2209984;67;1928;-71
2022/03/20 04:11:33;;;;;;;;;;;;;;;;;;2209546;67;1257;-71
2022/03/20 04:14:08;;;;;;;;;;;;;;;;;;2208192;59;1265;-71
2022/03/20 04:16:41;;;;;;;;;;;;;;;;;;2209987;67;1215;-71
2022/03/20 04:19:14;;;;;;;;;;;;;;;;;;2209941;67;1276;-71
2022/03/20 04:21:48;;;;;;;;;;;;;;;;;;2207560;59;1595;-71
2022/03/20 04:24:21;;;;;;;;;;;;;;;;;;2208863;67;1065;-71
2022/03/20 04:26:58;;;;;;;;;;;;;;;;;;2209487;67;1149;-71
2022/03/20 04:29:31;;;;;;;;;;;;;;;;;;2207391;59;1931;-71
2022/03/20 04:32:05;;;;;;;;;;;;;;;;;;2209017;67;1324;-71
2022/03/20 04:34:38;;;;;;;;;;;;;;;;;;2209262;59;1088;-71
2022/03/20 04:37:13;;;;;;;;;;;;;;;;;;2208803;67;1077;-71
2022/03/20 04:39:46;;;;;;;;;;;;;;;;;;2208925;59;1709;-71
2022/03/20 04:42:22;;;;;;;;;;;;;;;;;;2207621;67;1184;-71
2022/03/20 04:44:55;;;;;;;;;;;;;;;;;;2209206;67;1148;-71
2022/03/20 04:58:47;;;;;;;;;;;;;;;;;;2208759;67;1153;-71
2022/03/20 05:01:20;;;;;;;;;;;;;;;;;;2207636;59;1706;-71
2022/03/20 05:03:54;;;;;;;;;;;;;;;;;;2208035;67;1132;-71
2022/03/20 05:06:27;;;;;;;;;;;;;;;;;;2209984;67;1077;-71
2022/03/20 05:13:19;;;;;;;;;;;;;;;;;;2209307;67;1923;-71
2022/03/20 05:14:45;;;;;;;;;;;;;;;;;;2208357;67;1200;-71
2022/03/20 05:17:18;;;;;;;;;;;;;;;;;;2209359;67;1084;-71
2022/03/20 05:19:51;;;;;;;;;;;;;;;;;;2208578;59;1736;-71
2022/03/20 05:22:24;;;;;;;;;;;;;;;;;;2208096;59;1635;-71
2022/03/20 05:24:57;;;;;;;;;;;;;;;;;;2208543;60;1112;-71
2022/03/20 05:27:30;;;;;;;;;;;;;;;;;;2209040;59;1197;-71
2022/03/20 05:30:07;;;;;;;;;;;;;;;;;;2208431;67;1984;-71
2022/03/20 05:32:41;;;;;;;;;;;;;;;;;;2209455;67;1130;-71
2022/03/20 05:35:15;;;;;;;;;;;;;;;;;;2208862;67;1263;-71
2022/03/20 05:37:49;;;;;;;;;;;;;;;;;;2209524;59;1187;-71
2022/03/20 05:40:22;;;;;;;;;;;;;;;;;;2208390;59;1579;-71
2022/03/20 05:42:55;;;;;;;;;;;;;;;;;;2209091;67;1246;-71
2022/03/20 05:45:31;;;;;;;;;;;;;;;;;;2209214;67;1041;-71
2022/03/20 05:48:05;;;;;;;;;;;;;;;;;;2209489;59;1830;-71
2022/03/20 05:50:38;;;;;;;;;;;;;;;;;;2209195;67;1988;-71
2022/03/20 05:53:11;;;;;;;;;;;;;;;;;;2209034;67;1117;-71
2022/03/20 05:58:30;;;;;;;;;;;;;;;;;;2201712;67;1295;-71
2022/03/20 06:01:06;;;;;;;;;;;;;;;;;;2206131;59;1897;-71
2022/03/20 06:03:39;;;;;;;;;;;;;;;;;;2208594;67;1110;-71
2022/03/20 06:06:12;;;;;;;;;;;;;;;;;;2208110;59;1196;-71
2022/03/20 06:08:46;;;;;;;;;;;;;;;;;;2209892;67;1267;-71
2022/03/20 06:11:19;;;;;;;;;;;;;;;;;;2209044;67;1932;-71
2022/03/20 06:13:53;;;;;;;;;;;;;;;;;;2208463;67;2076;-71
2022/03/20 06:16:28;;;;;;;;;;;;;;;;;;2207237;67;1227;-71
2022/03/20 06:19:01;;;;;;;;;;;;;;;;;;2210052;67;1172;-71
2022/03/20 06:21:35;;;;;;;;;;;;;;;;;;2208985;53;3558;-68
2022/03/20 06:24:08;;;;;;;;;;;;;;;;;;2207694;59;1659;-68
2022/03/20 06:26:41;;;;;;;;;;;;;;;;;;2210139;67;1275;-68
2022/03/20 06:29:15;;;;;;;;;;;;;;;;;;2209013;59;1276;-68
2022/03/20 06:31:52;;;;;;;;;;;;;;;;;;2205301;59;1929;-68
2022/03/20 06:34:26;;;;;;;;;;;;;;;;;;2207944;59;1090;-68
2022/03/20 06:36:59;;;;;;;;;;;;;;;;;;2209295;59;2504;-68
2022/03/20 06:39:32;;;;;;;;;;;;;;;;;;2209213;67;1211;-69
2022/03/20 06:42:06;;;;;;;;;;;;;;;;;;2207281;59;1921;-68
2022/03/20 06:44:39;;;;;;;;;;;;;;;;;;2209578;59;1288;-68
2022/03/20 06:47:15;;;;;;;;;;;;;;;;;;2207929;59;1094;-68
2022/03/20 06:49:48;;;;;;;;;;;;;;;;;;2209608;67;1979;-68
2022/03/20 06:52:22;;;;;;;;;;;;;;;;;;2203749;67;1404;-69
2022/03/20 06:54:56;;;;;;;;;;;;;;;;;;2208437;67;1177;-68
2022/03/20 06:57:30;;;;;;;;;;;;;;;;;;2208303;67;1057;-69
2022/03/20 07:00:04;;;;;;;;;;;;;;;;;;2208570;59;1907;-68
2022/03/20 07:02:40;;;;;;;;;;;;;;;;;;2206799;67;1150;-68
2022/03/20 07:05:13;;;;;;;;;;;;;;;;;;2208237;67;1041;-68
2022/03/20 07:07:47;;;;;;;;;;;;;;;;;;2209128;67;1216;-68
2022/03/20 07:10:22;;;;;;;;;;;;;;;;;;2208608;59;1940;-68
2022/03/20 07:13:48;;;;;;;;;;;;;;;;;;2208373;59;1935;-68
2022/03/20 07:15:50;;;;;;;;;;;;;;;;;;2205687;67;1395;-68
2022/03/20 07:18:27;;;;;;;;;;;;;;;;;;2206162;59;1382;-68
2022/03/20 07:21:00;;;;;;;;;;;;;;;;;;2206845;59;1663;-68
2022/03/20 07:23:33;;;;;;;;;;;;;;;;;;2205383;67;1105;-68
2022/03/20 07:31:44;;;;;;;;;;;;;;;;;;2209190;59;2413;-68
2022/03/20 07:34:20;;;;;;;;;;;;;;;;;;2208791;59;1075;-68
2022/03/20 07:36:53;;;;;;;;;;;;;;;;;;2208727;67;1176;-68
2022/03/20 07:39:26;;;;;;;;;;;;;;;;;;2209382;59;1172;-68
2022/03/20 07:42:00;;;;;;;;;;;;;;;;;;2207058;59;1608;-68
2022/03/20 07:44:33;;;;;;;;;;;;;;;;;;2209180;67;1263;-68
2022/03/20 07:47:08;;;;;;;;;;;;;;;;;;2208564;59;1229;-68
2022/03/20 07:49:44;;;;;;;;;;;;;;;;;;2209043;59;1893;-68
2022/03/20 07:52:18;;;;;;;;;;;;;;;;;;2209206;67;1984;-68
2022/03/20 07:54:52;;;;;;;;;;;;;;;;;;2205692;67;1308;-68
2022/03/20 07:57:25;;;;;;;;;;;;;;;;;;2207007;59;1921;-69
2022/03/20 07:59:58;;;;;;;;;;;;;;;;;;2206923;59;1825;-69
2022/03/20 08:02:31;;;;;;;;;;;;;;;;;;2207749;59;1622;-68
2022/03/20 08:05:07;;;;;;;;;;;;;;;;;;2208070;59;1213;-68
2022/03/20 08:07:40;;;;;;;;;;;;;;;;;;2209288;59;1212;-69
2022/03/20 08:10:14;;;;;;;;;;;;;;;;;;2205734;67;1994;-68
2022/03/20 08:12:48;;;;;;;;;;;;;;;;;;2208870;59;1920;-68
2022/03/20 08:15:21;;;;;;;;;;;;;;;;;;2209548;59;1140;-69
2022/03/20 08:17:55;;;;;;;;;;;;;;;;;;2208956;59;1228;-68
2022/03/20 08:20:31;;;;;;;;;;;;;;;;;;2204142;59;2347;-69
2022/03/20 08:23:04;;;;;;;;;;;;;;;;;;2203963;67;1193;-69
2022/03/20 08:25:38;;;;;;;;;;;;;;;;;;2208502;59;1178;-69
2022/03/20 08:28:12;;;;;;;;;;;;;;;;;;2209420;59;1059;-69
2022/03/20 08:30:45;;;;;;;;;;;;;;;;;;2208319;59;1926;-69
2022/03/20 08:33:18;;;;;;;;;;;;;;;;;;2209405;59;1264;-69
2022/03/20 08:35:54;;;;;;;;;;;;;;;;;;2208035;59;1654;-69
2022/03/20 08:38:27;;;;;;;;;;;;;;;;;;2206835;59;1830;-69
2022/03/20 08:41:01;;;;;;;;;;;;;;;;;;2207955;59;1645;-69
2022/03/20 08:43:34;;;;;;;;;;;;;;;;;;2209647;67;1205;-68
2022/03/20 08:46:07;;;;;;;;;;;;;;;;;;2208237;59;1041;-68
2022/03/20 08:48:40;;;;;;;;;;;;;;;;;;2209588;67;2180;-69
2022/03/20 08:51:16;;;;;;;;;;;;;;;;;;2209121;59;1927;-69
2022/03/20 08:53:49;;;;;;;;;;;;;;;;;;2205896;67;1238;-68
2022/03/20 08:56:23;;;;;;;;;;;;;;;;;;2208244;67;1196;-69
2022/03/20 08:58:56;;;;;;;;;;;;;;;;;;2209206;67;1094;-68
2022/03/20 09:01:30;;;;;;;;;;;;;;;;;;2207827;59;1722;-69
2022/03/20 09:04:03;;;;;;;;;;;;;;;;;;2205726;67;1903;-69
2022/03/20 09:06:43;;;;;;;;;;;;;;;;;;2209022;59;1194;-69
2022/03/20 09:09:16;;;;;;;;;;;;;;;;;;2207465;59;2168;-69
2022/03/20 09:11:49;;;;;;;;;;;;;;;;;;2209579;59;2083;-69
2022/03/20 09:14:22;;;;;;;;;;;;;;;;;;2205130;59;3868;-69
2022/03/20 09:19:46;;;;;;;;;;;;;;;;;;2208117;67;1212;-69
2022/03/20 09:22:22;;;;;;;;;;;;;;;;;;2206935;59;1953;-69
2022/03/20 09:24:55;;;;;;;;;;;;;;;;;;2207753;59;1153;-68
2022/03/20 09:27:28;;;;;;;;;;;;;;;;;;2208533;59;1038;-68
2022/03/20 09:30:01;;;;;;;;;;;;;;;;;;2208259;59;1249;-69
2022/03/20 09:32:35;;;;;;;;;;;;;;;;;;2209696;67;1934;-69
2022/03/20 09:35:08;;;;;;;;;;;;;;;;;;2207701;59;1338;-69
2022/03/20 09:37:44;;;;;;;;;;;;;;;;;;2208208;59;1954;-68
2022/03/20 09:40:22;;;;;;;;;;;;;;;;;;2205893;59;1784;-69
2022/03/20 09:42:55;;;;;;;;;;;;;;;;;;2206122;59;1723;-69
2022/03/20 09:45:29;;;;;;;;;;;;;;;;;;2209047;67;1080;-69
2022/03/20 09:48:02;;;;;;;;;;;;;;;;;;2208019;59;1200;-68
2022/03/20 09:50:36;;;;;;;;;;;;;;;;;;2208723;67;1966;-69
2022/03/20 09:53:12;;;;;;;;;;;;;;;;;;2207830;59;1894;-69
2022/03/20 09:55:46;;;;;;;;;;;;;;;;;;2208262;59;1137;-69
2022/03/20 09:58:19;;;;;;;;;;;;;;;;;;2209521;59;1069;-69
2022/03/20 10:00:52;;;;;;;;;;;;;;;;;;2207783;59;1954;-68
2022/03/20 10:03:26;;;;;;;;;;;;;;;;;;2209292;67;1051;-69
2022/03/20 10:06:09;;;;;;;;;;;;;;;;;;2205926;67;1156;-69
2022/03/20 10:08:55;;;;;;;;;;;;;;;;;;2203996;67;1978;-69
2022/03/20 10:11:29;;;;;;;;;;;;;;;;;;2210188;59;2008;-69
2022/03/20 10:14:09;;;;;;;;;;;;;;;;;;2207796;59;1909;-69
2022/03/20 10:16:43;;;;;;;;;;;;;;;;;;2208791;59;1211;-69
2022/03/20 10:19:28;;;;;;;;;;;;;;;;;;2207724;59;1176;-69
2022/03/20 10:22:06;;;;;;;;;;;;;;;;;;2206874;59;1734;-69
2022/03/20 10:24:43;;;;;;;;;;;;;;;;;;2205590;59;1579;-68
2022/03/20 10:27:17;;;;;;;;;;;;;;;;;;2208142;67;1086;-69
2022/03/20 10:29:51;;;;;;;;;;;;;;;;;;2207670;59;1666;-68
2022/03/20 10:32:25;;;;;;;;;;;;;;;;;;2207488;67;2042;-69
2022/03/20 10:35:00;;;;;;;;;;;;;;;;;;2206728;59;1570;-69
2022/03/20 10:37:47;;;;;;;;;;;;;;;;;;2208056;67;1076;-69
2022/03/20 10:40:24;;;;;;;;;;;;;;;;;;2207052;59;1691;-71
2022/03/20 10:43:09;;;;;;;;;;;;;;;;;;2208590;67;1212;-69
2022/03/20 10:45:54;;;;;;;;;;;;;;;;;;2206544;59;1462;-68
2022/03/20 10:48:37;;;;;;;;;;;;;;;;;;2207214;59;1550;-68
2022/03/20 10:51:11;;;;;;;;;;;;;;;;;;2207065;59;1973;-69
2022/03/20 10:53:54;;;;;;;;;;;;;;;;;;2206590;59;1853;-69
2022/03/20 10:56:30;;;;;;;;;;;;;;;;;;2202995;59;2021;-69
2022/03/20 10:59:14;;;;;;;;;;;;;;;;;;2205958;59;1729;-69
2022/03/20 11:01:47;;;;;;;;;;;;;;;;;;2204797;59;1866;-69
2022/03/20 11:04:23;;;;;;;;;;;;;;;;;;2204890;59;1816;-69
2022/03/20 11:06:59;;;;;;;;;;;;;;;;;;2205686;59;1931;-69
2022/03/20 11:09:33;;;;;;;;;;;;;;;;;;2207560;59;1999;-69
2022/03/20 11:12:10;;;;;;;;;;;;;;;;;;2208891;59;1933;-69
2022/03/20 11:14:45;;;;;;;;;;;;;;;;;;2207529;59;1606;-69
2022/03/20 11:17:19;;;;;;;;;;;;;;;;;;2207190;59;1891;-69
2022/03/20 11:19:55;;;;;;;;;;;;;;;;;;2202112;59;1624;-69
2022/03/20 11:22:29;;;;;;;;;;;;;;;;;;2205019;59;1648;-68
2022/03/20 11:25:03;;;;;;;;;;;;;;;;;;2206149;59;1800;-69
2022/03/20 11:27:43;;;;;;;;;;;;;;;;;;2202735;59;1564;-69
2022/03/20 11:30:16;;;;;;;;;;;;;;;;;;2206688;59;1612;-69
2022/03/20 11:32:50;;;;;;;;;;;;;;;;;;2208645;67;1988;-69
2022/03/20 11:35:27;;;;;;;;;;;;;;;;;;2205556;59;1835;-69
2022/03/20 11:38:14;;;;;;;;;;;;;;;;;;2202328;59;1862;-69
2022/03/20 11:41:07;;;;;;;;;;;;;;;;;;2206337;59;1672;-69
2022/03/20 11:43:44;;;;;;;;;;;;;;;;;;2207501;59;1654;-69
2022/03/20 11:46:28;;;;;;;;;;;;;;;;;;2205855;59;1900;-69
2022/03/20 11:49:20;;;;;;;;;;;;;;;;;;2207281;59;1569;-69
2022/03/20 11:51:53;;;;;;;;;;;;;;;;;;2206329;59;1929;-69
2022/03/20 11:54:34;;;;;;;;;;;;;;;;;;2205211;59;1632;-69
2022/03/20 11:57:32;;;;;;;;;;;;;;;;;;2205667;59;1666;-69
2022/03/20 12:00:14;;;;;;;;;;;;;;;;;;2207313;59;2320;-69
2022/03/20 12:03:05;;;;;;;;;;;;;;;;;;2206297;59;1530;-69
2022/03/20 12:05:56;;;;;;;;;;;;;;;;;;2205591;59;1615;-70
2022/03/20 12:08:38;;;;;;;;;;;;;;;;;;2205958;59;1814;-69
2022/03/20 12:11:20;;;;;;;;;;;;;;;;;;2206008;59;1551;-69
2022/03/20 12:13:59;;;;;;;;;;;;;;;;;;2204971;59;1948;-69
2022/03/20 12:16:50;;;;;;;;;;;;;;;;;;2206190;59;1665;-69
2022/03/20 12:19:37;;;;;;;;;;;;;;;;;;2206845;59;1588;-69
2022/03/20 12:22:14;;;;;;;;;;;;;;;;;;2208786;53;3513;-70
2022/03/20 12:24:53;;;;;;;;;;;;;;;;;;2208157;59;1532;-70
2022/03/20 12:27:42;;;;;;;;;;;;;;;;;;2208200;59;1724;-71
2022/03/20 12:30:35;;;;;;;;;;;;;;;;;;2208809;59;1880;-70
2022/03/20 12:33:24;;;;;;;;;;;;;;;;;;2205333;59;1916;-70
2022/03/20 12:36:00;;;;;;;;;;;;;;;;;;2205948;59;1094;-70
2022/03/20 12:38:35;;;;;;;;;;;;;;;;;;2206016;59;1703;-71
2022/03/20 12:41:08;;;;;;;;;;;;;;;;;;2205762;59;1593;-70
2022/03/20 12:43:42;;;;;;;;;;;;;;;;;;2206147;59;1735;-71
2022/03/20 12:46:15;;;;;;;;;;;;;;;;;;2205306;59;1888;-70
2022/03/20 12:48:52;;;;;;;;;;;;;;;;;;2206416;59;1658;-70
2022/03/20 12:51:44;;;;;;;;;;;;;;;;;;2205170;59;1890;-70
2022/03/20 12:54:20;;;;;;;;;;;;;;;;;;2206407;59;1753;-70
2022/03/20 12:56:59;;;;;;;;;;;;;;;;;;2207188;59;1302;-70
2022/03/20 12:59:32;;;;;;;;;;;;;;;;;;2207350;67;1121;-70
2022/03/20 13:02:06;;;;;;;;;;;;;;;;;;2205527;59;1828;-70
2022/03/20 13:04:43;;;;;;;;;;;;;;;;;;2206488;67;1193;-70
2022/03/20 13:07:26;;;;;;;;;;;;;;;;;;2206159;67;1105;-71
2022/03/20 13:10:03;;;;;;;;;;;;;;;;;;2205065;59;1078;-70
2022/03/20 13:12:51;;;;;;;;;;;;;;;;;;2206689;59;1942;-70
2022/03/20 13:15:25;;;;;;;;;;;;;;;;;;2206495;67;1263;-70
2022/03/20 13:17:59;;;;;;;;;;;;;;;;;;2206558;59;1189;-70
2022/03/20 13:20:33;;;;;;;;;;;;;;;;;;2206375;67;1313;-70
2022/03/20 13:23:07;;;;;;;;;;;;;;;;;;2205791;59;1617;-70
2022/03/20 13:25:44;;;;;;;;;;;;;;;;;;2206314;59;1355;-70
2022/03/20 13:28:26;;;;;;;;;;;;;;;;;;2206902;67;1215;-70
2022/03/20 13:31:01;;;;;;;;;;;;;;;;;;2205834;67;1238;-70
2022/03/20 13:33:35;;;;;;;;;;;;;;;;;;2205856;67;1928;-70
2022/03/20 13:36:10;;;;;;;;;;;;;;;;;;2206329;67;1124;-70
2022/03/20 13:38:45;;;;;;;;;;;;;;;;;;2205705;67;1255;-70
2022/03/20 13:41:22;;;;;;;;;;;;;;;;;;2206560;59;1742;-70
2022/03/20 13:43:58;;;;;;;;;;;;;;;;;;2206481;59;1183;-70
2022/03/20 13:46:34;;;;;;;;;;;;;;;;;;2208727;67;1256;-70
2022/03/20 13:49:07;;;;;;;;;;;;;;;;;;2206664;59;1258;-70
2022/03/20 13:51:41;;;;;;;;;;;;;;;;;;2207124;67;1124;-70
2022/03/20 13:54:15;;;;;;;;;;;;;;;;;;2206788;59;1937;-70
2022/03/20 13:56:52;;;;;;;;;;;;;;;;;;2206470;59;1586;-70
2022/03/20 13:59:29;;;;;;;;;;;;;;;;;;2207355;67;1249;-70
2022/03/20 14:02:03;;;;;;;;;;;;;;;;;;2206473;59;1689;-70
2022/03/20 14:04:38;;;;;;;;;;;;;;;;;;2206907;67;1292;-70
2022/03/20 14:07:19;;;;;;;;;;;;;;;;;;2207480;59;1077;-70
2022/03/20 14:09:53;;;;;;;;;;;;;;;;;;2206587;59;1254;-70
2022/03/20 14:12:31;;;;;;;;;;;;;;;;;;2206544;59;2247;-70
2022/03/20 14:15:12;;;;;;;;;;;;;;;;;;2206742;59;1108;-70
2022/03/20 14:17:46;;;;;;;;;;;;;;;;;;2207894;67;1224;-70
2022/03/20 14:20:25;;;;;;;;;;;;;;;;;;2207430;67;1167;-70
2022/03/20 14:23:02;;;;;;;;;;;;;;;;;;2207041;59;1763;-70
2022/03/20 14:25:37;;;;;;;;;;;;;;;;;;2207145;67;1181;-70
2022/03/20 14:28:14;;;;;;;;;;;;;;;;;;2206866;67;1112;-70
2022/03/20 14:39:43;;;;;;;;;;;;;;;;;;2207049;67;1164;-70
2022/03/20 14:42:27;;;;;;;;;;;;;;;;;;2206784;59;1565;-70
2022/03/20 14:45:04;;;;;;;;;;;;;;;;;;2206853;59;1343;-70
2022/03/20 14:47:37;;;;;;;;;;;;;;;;;;2206080;59;1480;-70
2022/03/20 14:50:10;;;;;;;;;;;;;;;;;;2207754;67;1121;-70
2022/03/20 14:52:43;;;;;;;;;;;;;;;;;;2206473;67;1974;-68
2022/03/20 14:55:16;;;;;;;;;;;;;;;;;;2206810;67;1260;-69
2022/03/20 14:57:51;;;;;;;;;;;;;;;;;;2206697;67;1128;-68
2022/03/20 15:00:27;;;;;;;;;;;;;;;;;;2206486;59;1200;-68
2022/03/20 15:03:00;;;;;;;;;;;;;;;;;;2206670;59;2238;-69
2022/03/20 15:05:33;;;;;;;;;;;;;;;;;;2206583;67;1186;-71
2022/03/20 15:13:44;;;;;;;;;;;;;;;;;;2206483;59;2131;-68
2022/03/20 15:16:21;;;;;;;;;;;;;;;;;;2207741;67;1070;-68
2022/03/20 15:18:54;;;;;;;;;;;;;;;;;;2206680;67;1299;-69
2022/03/20 15:21:28;;;;;;;;;;;;;;;;;;2206438;59;1537;-69
2022/03/20 15:24:02;;;;;;;;;;;;;;;;;;2207334;59;1127;-69
2022/03/20 15:26:35;;;;;;;;;;;;;;;;;;2206383;67;1187;-69
2022/03/20 15:29:09;;;;;;;;;;;;;;;;;;2207032;67;1220;-69
2022/03/20 15:31:48;;;;;;;;;;;;;;;;;;2206110;67;1155;-69
2022/03/20 15:34:23;;;;;;;;;;;;;;;;;;2206899;59;1939;-69
2022/03/20 15:36:56;;;;;;;;;;;;;;;;;;2207348;67;1211;-69
2022/03/20 15:39:29;;;;;;;;;;;;;;;;;;2206357;67;1180;-69
2022/03/20 15:42:03;;;;;;;;;;;;;;;;;;2207648;59;1639;-69
2022/03/20 15:44:36;;;;;;;;;;;;;;;;;;2206247;59;1150;-69
2022/03/20 15:47:12;;;;;;;;;;;;;;;;;;2205306;67;1387;-69
2022/03/20 15:49:45;;;;;;;;;;;;;;;;;;2206623;59;1145;-69
2022/03/20 15:52:18;;;;;;;;;;;;;;;;;;2203429;67;1450;-69
2022/03/20 15:54:51;;;;;;;;;;;;;;;;;;2207072;67;1943;-69
2022/03/20 15:57:25;;;;;;;;;;;;;;;;;;2206647;67;1215;-69
2022/03/20 15:59:58;;;;;;;;;;;;;;;;;;2206830;67;1080;-69
2022/03/20 16:02:34;;;;;;;;;;;;;;;;;;2205580;59;1657;-69
2022/03/20 16:05:08;;;;;;;;;;;;;;;;;;2206258;67;1131;-68
2022/03/20 16:07:41;;;;;;;;;;;;;;;;;;2207288;59;1251;-69
2022/03/20 16:10:14;;;;;;;;;;;;;;;;;;2207450;67;1083;-69
2022/03/20 16:12:47;;;;;;;;;;;;;;;;;;2207593;59;1937;-69
2022/03/20 16:15:20;;;;;;;;;;;;;;;;;;2206881;67;1188;-69
2022/03/20 16:17:56;;;;;;;;;;;;;;;;;;2206580;59;1675;-69
2022/03/20 16:20:29;;;;;;;;;;;;;;;;;;2203750;59;1348;-71
2022/03/20 16:28:41;;;;;;;;;;;;;;;;;;2205696;67;1035;-71
2022/03/20 16:31:15;;;;;;;;;;;;;;;;;;2206489;59;1251;-71
2022/03/20 16:33:52;;;;;;;;;;;;;;;;;;2206971;59;1931;-71
2022/03/20 16:36:25;;;;;;;;;;;;;;;;;;2206348;59;1224;-71
2022/03/20 16:38:58;;;;;;;;;;;;;;;;;;2207072;67;1184;-69
2022/03/20 16:41:32;;;;;;;;;;;;;;;;;;2206713;59;1765;-69
2022/03/20 16:44:05;;;;;;;;;;;;;;;;;;2204959;67;1284;-69
2022/03/20 16:46:38;;;;;;;;;;;;;;;;;;2206786;59;1117;-69
2022/03/20 16:49:14;;;;;;;;;;;;;;;;;;2206275;59;1222;-69
2022/03/20 16:51:48;;;;;;;;;;;;;;;;;;2206388;67;1257;-69
2022/03/20 16:54:21;;;;;;;;;;;;;;;;;;2206691;67;1920;-69
2022/03/20 16:56:54;;;;;;;;;;;;;;;;;;2206736;67;1419;-69
2022/03/20 16:59:27;;;;;;;;;;;;;;;;;;2206672;59;1158;-69
2022/03/20 17:02:00;;;;;;;;;;;;;;;;;;2205765;59;1624;-69
2022/03/20 17:04:36;;;;;;;;;;;;;;;;;;2205193;67;1214;-69
2022/03/20 17:07:09;;;;;;;;;;;;;;;;;;2206494;67;1098;-69
2022/03/20 17:09:43;;;;;;;;;;;;;;;;;;2206229;59;1157;-69
2022/03/20 17:12:20;;;;;;;;;;;;;;;;;;2207126;59;2350;-69
2022/03/20 17:14:54;;;;;;;;;;;;;;;;;;2206669;67;1972;-69
2022/03/20 17:17:27;;;;;;;;;;;;;;;;;;2206600;67;1117;-69
2022/03/20 17:20:03;;;;;;;;;;;;;;;;;;2206219;67;1092;-69
2022/03/20 17:22:39;;;;;;;;;;;;;;;;;;2205991;59;1630;-69
2022/03/20 17:25:13;;;;;;;;;;;;;;;;;;2206487;59;1280;-69
2022/03/20 17:27:46;;;;;;;;;;;;;;;;;;2206199;59;1401;-69
2022/03/20 17:30:20;;;;;;;;;;;;;;;;;;2206156;59;1437;-69
2022/03/20 17:32:53;;;;;;;;;;;;;;;;;;2205913;67;1403;-69
2022/03/20 17:35:30;;;;;;;;;;;;;;;;;;2206108;59;1921;-69
2022/03/20 17:38:03;;;;;;;;;;;;;;;;;;2205841;67;1093;-69
2022/03/20 17:40:37;;;;;;;;;;;;;;;;;;2206741;59;1764;-69
2022/03/20 17:43:13;;;;;;;;;;;;;;;;;;2205673;67;1198;-71
2022/03/20 17:45:46;;;;;;;;;;;;;;;;;;2206356;67;1117;-71
2022/03/20 17:48:21;;;;;;;;;;;;;;;;;;2207082;67;1243;-70
2022/03/20 17:51:08;;;;;;;;;;;;;;;;;;2206469;59;2362;-70
2022/03/20 17:53:45;;;;;;;;;;;;;;;;;;2206617;67;1937;-71
2022/03/20 17:56:21;;;;;;;;;;;;;;;;;;2206685;67;1174;-71
2022/03/20 17:58:56;;;;;;;;;;;;;;;;;;2206463;67;1121;-71
2022/03/20 18:01:29;;;;;;;;;;;;;;;;;;2207117;59;1573;-71
2022/03/20 18:09:42;;;;;;;;;;;;;;;;;;2206127;67;1824;-71
2022/03/20 18:12:15;;;;;;;;;;;;;;;;;;2206689;59;1921;-70
2022/03/20 18:14:48;;;;;;;;;;;;;;;;;;2206560;67;1932;-71
2022/03/20 18:17:21;;;;;;;;;;;;;;;;;;2205904;59;1292;-71
2022/03/20 18:19:55;;;;;;;;;;;;;;;;;;2206395;67;1197;-71
2022/03/20 18:22:31;;;;;;;;;;;;;;;;;;2210335;53;3576;-73
2022/03/20 18:25:04;;;;;;;;;;;;;;;;;;2210717;59;1346;-73
2022/03/20 18:27:39;;;;;;;;;;;;;;;;;;2209911;67;1229;-73
2022/03/20 18:30:13;;;;;;;;;;;;;;;;;;2213669;59;1212;-73
2022/03/20 18:32:47;;;;;;;;;;;;;;;;;;2213693;59;1337;-73
2022/03/20 18:35:21;;;;;;;;;;;;;;;;;;2212383;67;1979;-73
2022/03/20 18:37:57;;;;;;;;;;;;;;;;;;2212181;59;1259;-74
2022/03/20 18:40:30;;;;;;;;;;;;;;;;;;2213404;67;1358;-73
2022/03/20 18:43:04;;;;;;;;;;;;;;;;;;2211950;59;1901;-73
2022/03/20 18:45:37;;;;;;;;;;;;;;;;;;2211726;67;1135;-73
2022/03/20 18:48:10;;;;;;;;;;;;;;;;;;2208709;67;1486;-73
2022/03/20 18:50:43;;;;;;;;;;;;;;;;;;2213536;67;1228;-73
2022/03/20 18:53:19;;;;;;;;;;;;;;;;;;2212451;67;1146;-73
2022/03/20 18:55:55;;;;;;;;;;;;;;;;;;2214037;59;1987;-73
2022/03/20 18:58:28;;;;;;;;;;;;;;;;;;2213181;67;1406;-73
2022/03/20 19:01:03;;;;;;;;;;;;;;;;;;2213254;59;1747;-73